sensor_id;sensor_type;location;lat;lon;timestamp;pressure;altitude;pressure_sealevel;temperature
69420;BMP280;56612;52.030;113.524;2022-07-10T00:01:17;92227.91;;;17.98
69420;BMP280;56612;52.030;113.524;2022-07-10T00:04:20;92235.91;;;18.23
69420;BMP280;56612;52.030;113.524;2022-07-10T00:07:24;92229.31;;;18.41
69420;BMP280;56612;52.030;113.524;2022-07-10T00:10:29;92231.53;;;18.55
69420;BMP280;56612;52.030;113.524;2022-07-10T00:13:35;92233.78;;;18.69
69420;BMP280;56612;52.030;113.524;2022-07-10T00:16:40;92235.13;;;18.89
69420;BMP280;56612;52.030;113.524;2022-07-10T00:19:43;92240.06;;;19.03
69420;BMP280;56612;52.030;113.524;2022-07-10T00:22:47;92236.84;;;18.99
69420;BMP280;56612;52.030;113.524;2022-07-10T00:25:50;92244.63;;;18.88
69420;BMP280;56612;52.030;113.524;2022-07-10T00:28:53;92246.88;;;18.61
69420;BMP280;56612;52.030;113.524;2022-07-10T00:31:57;92242.81;;;18.41
69420;BMP280;56612;52.030;113.524;2022-07-10T00:35:01;92250.66;;;18.49
69420;BMP280;56612;52.030;113.524;2022-07-10T00:38:04;92251.44;;;18.66
69420;BMP280;56612;52.030;113.524;2022-07-10T00:41:08;92246.22;;;18.81
69420;BMP280;56612;52.030;113.524;2022-07-10T00:44:12;92243.72;;;18.96
69420;BMP280;56612;52.030;113.524;2022-07-10T00:47:15;92237.66;;;18.95
69420;BMP280;56612;52.030;113.524;2022-07-10T00:50:22;92248.84;;;19.04
69420;BMP280;56612;52.030;113.524;2022-07-10T00:53:26;92247.38;;;19.07
69420;BMP280;56612;52.030;113.524;2022-07-10T00:56:29;92242.50;;;19.30
69420;BMP280;56612;52.030;113.524;2022-07-10T00:59:33;92237.56;;;19.37
69420;BMP280;56612;52.030;113.524;2022-07-10T01:02:37;92240.38;;;19.51
69420;BMP280;56612;52.030;113.524;2022-07-10T01:05:44;92239.72;;;19.70
69420;BMP280;56612;52.030;113.524;2022-07-10T01:08:47;92247.19;;;19.88
69420;BMP280;56612;52.030;113.524;2022-07-10T01:11:51;92245.16;;;20.05
69420;BMP280;56612;52.030;113.524;2022-07-10T01:14:55;92237.50;;;20.28
69420;BMP280;56612;52.030;113.524;2022-07-10T01:18:00;92236.19;;;20.44
69420;BMP280;56612;52.030;113.524;2022-07-10T01:21:04;92241.69;;;20.59
69420;BMP280;56612;52.030;113.524;2022-07-10T01:24:10;92246.06;;;20.52
69420;BMP280;56612;52.030;113.524;2022-07-10T01:27:13;92236.25;;;20.75
69420;BMP280;56612;52.030;113.524;2022-07-10T01:30:17;92238.09;;;20.96
69420;BMP280;56612;52.030;113.524;2022-07-10T01:33:21;92237.91;;;21.16
69420;BMP280;56612;52.030;113.524;2022-07-10T01:36:28;92241.25;;;20.86
69420;BMP280;56612;52.030;113.524;2022-07-10T01:39:32;92239.22;;;20.86
69420;BMP280;56612;52.030;113.524;2022-07-10T01:42:36;92235.84;;;21.17
69420;BMP280;56612;52.030;113.524;2022-07-10T01:45:40;92235.38;;;21.12
69420;BMP280;56612;52.030;113.524;2022-07-10T01:48:44;92232.56;;;20.83
69420;BMP280;56612;52.030;113.524;2022-07-10T01:51:48;92233.44;;;21.26
69420;BMP280;56612;52.030;113.524;2022-07-10T01:54:51;92229.63;;;21.50
69420;BMP280;56612;52.030;113.524;2022-07-10T01:57:54;92234.00;;;21.89
69420;BMP280;56612;52.030;113.524;2022-07-10T02:01:05;92225.00;;;22.07
69420;BMP280;56612;52.030;113.524;2022-07-10T02:04:09;92230.50;;;22.34
69420;BMP280;56612;52.030;113.524;2022-07-10T02:07:48;92226.44;;;22.75
69420;BMP280;56612;52.030;113.524;2022-07-10T02:10:51;92221.63;;;23.03
69420;BMP280;56612;52.030;113.524;2022-07-10T02:13:55;92215.69;;;22.59
69420;BMP280;56612;52.030;113.524;2022-07-10T02:16:58;92209.22;;;22.10
69420;BMP280;56612;52.030;113.524;2022-07-10T02:20:04;92214.50;;;21.84
69420;BMP280;56612;52.030;113.524;2022-07-10T02:23:07;92216.66;;;21.67
69420;BMP280;56612;52.030;113.524;2022-07-10T02:26:11;92208.28;;;21.71
69420;BMP280;56612;52.030;113.524;2022-07-10T02:29:15;92212.94;;;22.31
69420;BMP280;56612;52.030;113.524;2022-07-10T02:32:18;92217.75;;;22.31
69420;BMP280;56612;52.030;113.524;2022-07-10T02:35:21;92207.16;;;22.10
69420;BMP280;56612;52.030;113.524;2022-07-10T02:38:25;92218.31;;;22.61
69420;BMP280;56612;52.030;113.524;2022-07-10T02:41:28;92220.00;;;23.08
69420;BMP280;56612;52.030;113.524;2022-07-10T02:44:32;92219.41;;;23.96
69420;BMP280;56612;52.030;113.524;2022-07-10T02:47:36;92216.75;;;25.02
69420;BMP280;56612;52.030;113.524;2022-07-10T02:50:39;92216.41;;;25.08
69420;BMP280;56612;52.030;113.524;2022-07-10T02:53:43;92224.72;;;24.60
69420;BMP280;56612;52.030;113.524;2022-07-10T02:56:46;92218.22;;;23.68
69420;BMP280;56612;52.030;113.524;2022-07-10T02:59:49;92213.41;;;24.42
69420;BMP280;56612;52.030;113.524;2022-07-10T03:02:54;92207.09;;;26.67
69420;BMP280;56612;52.030;113.524;2022-07-10T03:05:58;92203.38;;;26.08
69420;BMP280;56612;52.030;113.524;2022-07-10T03:09:02;92215.72;;;25.31
69420;BMP280;56612;52.030;113.524;2022-07-10T03:12:06;92214.50;;;25.17
69420;BMP280;56612;52.030;113.524;2022-07-10T03:15:10;92202.13;;;25.18
69420;BMP280;56612;52.030;113.524;2022-07-10T03:18:13;92205.53;;;24.72
69420;BMP280;56612;52.030;113.524;2022-07-10T03:21:16;92210.25;;;23.64
69420;BMP280;56612;52.030;113.524;2022-07-10T03:24:20;92207.59;;;23.11
69420;BMP280;56612;52.030;113.524;2022-07-10T03:27:23;92216.41;;;25.08
69420;BMP280;56612;52.030;113.524;2022-07-10T03:30:26;92211.69;;;27.98
69420;BMP280;56612;52.030;113.524;2022-07-10T03:33:30;92211.88;;;28.79
69420;BMP280;56612;52.030;113.524;2022-07-10T03:36:34;92203.91;;;28.75
69420;BMP280;56612;52.030;113.524;2022-07-10T03:39:37;92196.44;;;28.65
69420;BMP280;56612;52.030;113.524;2022-07-10T03:42:40;92204.59;;;28.48
69420;BMP280;56612;52.030;113.524;2022-07-10T03:45:44;92195.16;;;27.21
69420;BMP280;56612;52.030;113.524;2022-07-10T03:48:48;92191.97;;;26.97
69420;BMP280;56612;52.030;113.524;2022-07-10T03:51:51;92191.38;;;26.86
69420;BMP280;56612;52.030;113.524;2022-07-10T03:54:54;92188.34;;;26.39
69420;BMP280;56612;52.030;113.524;2022-07-10T03:57:59;92188.66;;;26.76
69420;BMP280;56612;52.030;113.524;2022-07-10T04:01:05;92189.13;;;26.06
69420;BMP280;56612;52.030;113.524;2022-07-10T04:04:08;92180.75;;;25.10
69420;BMP280;56612;52.030;113.524;2022-07-10T04:07:12;92184.53;;;24.58
69420;BMP280;56612;52.030;113.524;2022-07-10T04:10:16;92184.56;;;24.45
69420;BMP280;56612;52.030;113.524;2022-07-10T04:13:19;92174.63;;;25.75
69420;BMP280;56612;52.030;113.524;2022-07-10T04:16:23;92181.84;;;25.92
69420;BMP280;56612;52.030;113.524;2022-07-10T04:19:26;92185.94;;;24.80
69420;BMP280;56612;52.030;113.524;2022-07-10T04:22:31;92177.72;;;23.98
69420;BMP280;56612;52.030;113.524;2022-07-10T04:25:34;92169.34;;;23.64
69420;BMP280;56612;52.030;113.524;2022-07-10T04:28:37;92183.09;;;23.49
69420;BMP280;56612;52.030;113.524;2022-07-10T04:31:41;92183.09;;;23.49
69420;BMP280;56612;52.030;113.524;2022-07-10T04:34:47;92175.22;;;24.30
69420;BMP280;56612;52.030;113.524;2022-07-10T04:37:51;92175.59;;;24.70
69420;BMP280;56612;52.030;113.524;2022-07-10T04:40:54;92171.34;;;25.41
69420;BMP280;56612;52.030;113.524;2022-07-10T04:43:57;92164.81;;;25.36
69420;BMP280;56612;52.030;113.524;2022-07-10T04:47:04;92168.88;;;24.80
69420;BMP280;56612;52.030;113.524;2022-07-10T04:50:08;92171.59;;;25.03
69420;BMP280;56612;52.030;113.524;2022-07-10T04:53:12;92158.72;;;25.12
69420;BMP280;56612;52.030;113.524;2022-07-10T04:56:15;92161.78;;;25.29
69420;BMP280;56612;52.030;113.524;2022-07-10T04:59:19;92164.75;;;26.23
69420;BMP280;56612;52.030;113.524;2022-07-10T05:02:22;92149.78;;;27.03
69420;BMP280;56612;52.030;113.524;2022-07-10T05:05:26;92143.63;;;26.22
69420;BMP280;56612;52.030;113.524;2022-07-10T05:08:29;92154.72;;;25.77
69420;BMP280;56612;52.030;113.524;2022-07-10T05:11:33;92147.53;;;25.61
69420;BMP280;56612;52.030;113.524;2022-07-10T05:14:36;92148.88;;;24.83
69420;BMP280;56612;52.030;113.524;2022-07-10T05:17:39;92153.84;;;24.92
69420;BMP280;56612;52.030;113.524;2022-07-10T05:20:42;92150.22;;;27.46
69420;BMP280;56612;52.030;113.524;2022-07-10T05:23:47;92142.28;;;29.77
69420;BMP280;56612;52.030;113.524;2022-07-10T05:26:51;92137.59;;;29.50
69420;BMP280;56612;52.030;113.524;2022-07-10T05:29:55;92140.09;;;27.34
69420;BMP280;56612;52.030;113.524;2022-07-10T05:32:58;92150.16;;;28.04
69420;BMP280;56612;52.030;113.524;2022-07-10T05:36:02;92131.72;;;27.36
69420;BMP280;56612;52.030;113.524;2022-07-10T05:39:05;92123.25;;;26.40
69420;BMP280;56612;52.030;113.524;2022-07-10T05:42:10;92132.81;;;25.77
69420;BMP280;56612;52.030;113.524;2022-07-10T05:45:13;92140.59;;;25.41
69420;BMP280;56612;52.030;113.524;2022-07-10T05:48:17;92134.19;;;25.33
69420;BMP280;56612;52.030;113.524;2022-07-10T05:51:20;92140.00;;;24.83
69420;BMP280;56612;52.030;113.524;2022-07-10T05:54:34;92138.50;;;24.63
69420;BMP280;56612;52.030;113.524;2022-07-10T05:57:38;92128.56;;;24.57
69420;BMP280;56612;52.030;113.524;2022-07-10T06:00:42;92134.56;;;24.36
69420;BMP280;56612;52.030;113.524;2022-07-10T06:03:48;92133.19;;;24.25
69420;BMP280;56612;52.030;113.524;2022-07-10T06:06:52;92133.56;;;24.06
69420;BMP280;56612;52.030;113.524;2022-07-10T06:09:55;92128.94;;;23.92
69420;BMP280;56612;52.030;113.524;2022-07-10T06:12:58;92133.63;;;23.93
69420;BMP280;56612;52.030;113.524;2022-07-10T06:16:01;92130.97;;;24.04
69420;BMP280;56612;52.030;113.524;2022-07-10T06:19:07;92134.44;;;24.15
69420;BMP280;56612;52.030;113.524;2022-07-10T06:22:10;92133.84;;;24.25
69420;BMP280;56612;52.030;113.524;2022-07-10T06:25:32;92137.16;;;24.85
69420;BMP280;56612;52.030;113.524;2022-07-10T06:28:35;92129.22;;;25.25
69420;BMP280;56612;52.030;113.524;2022-07-10T06:31:41;92129.09;;;26.85
69420;BMP280;56612;52.030;113.524;2022-07-10T06:34:44;92122.78;;;28.49
69420;BMP280;56612;52.030;113.524;2022-07-10T06:37:48;92123.63;;;28.64
69420;BMP280;56612;52.030;113.524;2022-07-10T06:40:52;92115.81;;;27.85
69420;BMP280;56612;52.030;113.524;2022-07-10T06:43:55;92106.31;;;27.65
69420;BMP280;56612;52.030;113.524;2022-07-10T06:46:58;92107.72;;;26.36
69420;BMP280;56612;52.030;113.524;2022-07-10T06:50:21;92113.25;;;25.62
69420;BMP280;56612;52.030;113.524;2022-07-10T06:53:24;92105.94;;;25.26
69420;BMP280;56612;52.030;113.524;2022-07-10T06:56:30;92098.59;;;25.12
69420;BMP280;56612;52.030;113.524;2022-07-10T06:59:33;92099.78;;;25.15
69420;BMP280;56612;52.030;113.524;2022-07-10T07:02:37;92091.88;;;25.86
69420;BMP280;56612;52.030;113.524;2022-07-10T07:05:40;92102.03;;;25.76
69420;BMP280;56612;52.030;113.524;2022-07-10T07:08:44;92100.50;;;25.58
69420;BMP280;56612;52.030;113.524;2022-07-10T07:11:47;92098.78;;;25.42
69420;BMP280;56612;52.030;113.524;2022-07-10T07:14:51;92094.75;;;25.41
69420;BMP280;56612;52.030;113.524;2022-07-10T07:17:54;92098.00;;;25.44
69420;BMP280;56612;52.030;113.524;2022-07-10T07:21:11;92091.47;;;25.39
69420;BMP280;56612;52.030;113.524;2022-07-10T07:24:33;92092.78;;;25.40
69420;BMP280;56612;52.030;113.524;2022-07-10T07:27:37;92085.53;;;25.79
69420;BMP280;56612;52.030;113.524;2022-07-10T07:30:45;92094.63;;;25.64
69420;BMP280;56612;52.030;113.524;2022-07-10T07:33:49;92103.59;;;25.52
69420;BMP280;56612;52.030;113.524;2022-07-10T07:36:52;92100.31;;;25.28
69420;BMP280;56612;52.030;113.524;2022-07-10T07:39:56;92099.69;;;25.28
69420;BMP280;56612;52.030;113.524;2022-07-10T07:43:01;92096.81;;;25.30
69420;BMP280;56612;52.030;113.524;2022-07-10T07:46:04;92095.50;;;25.29
69420;BMP280;56612;52.030;113.524;2022-07-10T07:49:07;92108.09;;;25.13
69420;BMP280;56612;52.030;113.524;2022-07-10T07:52:11;92115.91;;;25.09
69420;BMP280;56612;52.030;113.524;2022-07-10T07:55:17;92115.13;;;25.10
69420;BMP280;56612;52.030;113.524;2022-07-10T07:58:20;92126.63;;;25.23
69420;BMP280;56612;52.030;113.524;2022-07-10T08:01:24;92115.53;;;25.15
69420;BMP280;56612;52.030;113.524;2022-07-10T08:04:28;92120.50;;;25.23
69420;BMP280;56612;52.030;113.524;2022-07-10T08:07:38;92113.88;;;25.30
69420;BMP280;56612;52.030;113.524;2022-07-10T08:10:42;92111.59;;;25.12
69420;BMP280;56612;52.030;113.524;2022-07-10T08:13:46;92110.19;;;25.23
69420;BMP280;56612;52.030;113.524;2022-07-10T08:16:50;92123.06;;;25.14
69420;BMP280;56612;52.030;113.524;2022-07-10T08:19:53;92120.38;;;25.25
69420;BMP280;56612;52.030;113.524;2022-07-10T08:22:57;92128.88;;;25.53
69420;BMP280;56612;52.030;113.524;2022-07-10T08:26:02;92134.50;;;25.61
69420;BMP280;56612;52.030;113.524;2022-07-10T08:29:06;92131.22;;;26.23
69420;BMP280;56612;52.030;113.524;2022-07-10T08:32:09;92120.03;;;25.84
69420;BMP280;56612;52.030;113.524;2022-07-10T08:35:13;92124.06;;;25.64
69420;BMP280;56612;52.030;113.524;2022-07-10T08:38:17;92120.28;;;26.23
69420;BMP280;56612;52.030;113.524;2022-07-10T08:41:26;92116.19;;;27.32
69420;BMP280;56612;52.030;113.524;2022-07-10T08:44:30;92110.03;;;27.51
69420;BMP280;56612;52.030;113.524;2022-07-10T08:47:34;92112.88;;;26.91
69420;BMP280;56612;52.030;113.524;2022-07-10T08:50:44;92101.78;;;26.63
69420;BMP280;56612;52.030;113.524;2022-07-10T08:53:51;92103.63;;;25.95
69420;BMP280;56612;52.030;113.524;2022-07-10T08:57:00;92116.28;;;25.58
69420;BMP280;56612;52.030;113.524;2022-07-10T09:00:04;92123.69;;;25.04
69420;BMP280;56612;52.030;113.524;2022-07-10T09:03:08;92127.78;;;24.82
69420;BMP280;56612;52.030;113.524;2022-07-10T09:06:11;92131.34;;;24.68
69420;BMP280;56612;52.030;113.524;2022-07-10T09:09:15;92141.66;;;24.44
69420;BMP280;56612;52.030;113.524;2022-07-10T09:12:19;92142.47;;;24.30
69420;BMP280;56612;52.030;113.524;2022-07-10T09:15:29;92150.88;;;24.26
69420;BMP280;56612;52.030;113.524;2022-07-10T09:18:35;92147.06;;;24.21
69420;BMP280;56612;52.030;113.524;2022-07-10T09:21:39;92154.97;;;24.14
69420;BMP280;56612;52.030;113.524;2022-07-10T09:24:44;92162.31;;;24.05
69420;BMP280;56612;52.030;113.524;2022-07-10T09:27:52;92163.41;;;23.97
69420;BMP280;56612;52.030;113.524;2022-07-10T09:30:56;92175.88;;;23.82
69420;BMP280;56612;52.030;113.524;2022-07-10T09:34:00;92175.78;;;23.71
69420;BMP280;56612;52.030;113.524;2022-07-10T09:37:24;92185.16;;;23.74
69420;BMP280;56612;52.030;113.524;2022-07-10T09:40:27;92192.16;;;23.58
69420;BMP280;56612;52.030;113.524;2022-07-10T09:43:46;92198.69;;;23.63
69420;BMP280;56612;52.030;113.524;2022-07-10T09:46:50;92203.84;;;23.70
69420;BMP280;56612;52.030;113.524;2022-07-10T09:49:53;92189.31;;;23.73
69420;BMP280;56612;52.030;113.524;2022-07-10T09:52:58;92195.22;;;26.70
69420;BMP280;56612;52.030;113.524;2022-07-10T09:56:03;92199.56;;;29.23
69420;BMP280;56612;52.030;113.524;2022-07-10T09:59:12;92199.59;;;27.46
69420;BMP280;56612;52.030;113.524;2022-07-10T10:02:17;92209.41;;;29.12
69420;BMP280;56612;52.030;113.524;2022-07-10T10:05:29;92215.06;;;28.18
69420;BMP280;56612;52.030;113.524;2022-07-10T10:11:47;92220.53;;;28.65
69420;BMP280;56612;52.030;113.524;2022-07-10T10:14:53;92212.28;;;27.90
69420;BMP280;56612;52.030;113.524;2022-07-10T10:17:58;92225.69;;;27.26
69420;BMP280;56612;52.030;113.524;2022-07-10T10:21:03;92220.31;;;26.00
69420;BMP280;56612;52.030;113.524;2022-07-10T10:24:13;92228.28;;;24.92
69420;BMP280;56612;52.030;113.524;2022-07-10T10:27:17;92222.53;;;24.26
69420;BMP280;56612;52.030;113.524;2022-07-10T10:30:21;92231.88;;;23.81
69420;BMP280;56612;52.030;113.524;2022-07-10T10:36:46;92248.44;;;23.39
69420;BMP280;56612;52.030;113.524;2022-07-10T10:39:52;92241.72;;;23.10
69420;BMP280;56612;52.030;113.524;2022-07-10T10:43:22;92251.84;;;23.12
69420;BMP280;56612;52.030;113.524;2022-07-10T10:46:27;92248.72;;;22.93
69420;BMP280;56612;52.030;113.524;2022-07-10T10:50:08;92255.59;;;22.92
69420;BMP280;56612;52.030;113.524;2022-07-10T10:54:30;92252.56;;;22.70
69420;BMP280;56612;52.030;113.524;2022-07-10T10:59:00;92261.50;;;22.69
69420;BMP280;56612;52.030;113.524;2022-07-10T11:03:29;92255.78;;;22.60
69420;BMP280;56612;52.030;113.524;2022-07-10T11:08:01;92256.00;;;22.42
69420;BMP280;56612;52.030;113.524;2022-07-10T11:16:46;92255.19;;;23.78
69420;BMP280;56612;52.030;113.524;2022-07-10T11:21:07;92251.53;;;23.83
69420;BMP280;56612;52.030;113.524;2022-07-10T11:33:58;92248.44;;;23.39
69420;BMP280;56612;52.030;113.524;2022-07-10T11:38:24;92248.47;;;23.11
69420;BMP280;56612;52.030;113.524;2022-07-10T11:43:09;92248.03;;;23.07
69420;BMP280;56612;52.030;113.524;2022-07-10T11:51:51;92263.66;;;22.66
69420;BMP280;56612;52.030;113.524;2022-07-10T11:56:22;92263.22;;;22.47
69420;BMP280;56612;52.030;113.524;2022-07-10T12:01:16;92273.78;;;22.11
69420;BMP280;56612;52.030;113.524;2022-07-10T12:06:06;92279.38;;;21.63
69420;BMP280;56612;52.030;113.524;2022-07-10T12:10:53;92281.81;;;21.38
69420;BMP280;56612;52.030;113.524;2022-07-10T12:15:51;92282.28;;;21.28
69420;BMP280;56612;52.030;113.524;2022-07-10T12:20:12;92290.38;;;21.13
69420;BMP280;56612;52.030;113.524;2022-07-10T12:24:58;92300.44;;;21.00
69420;BMP280;56612;52.030;113.524;2022-07-10T12:29:20;92305.94;;;20.81
69420;BMP280;56612;52.030;113.524;2022-07-10T12:38:26;92320.88;;;20.47
69420;BMP280;56612;52.030;113.524;2022-07-10T12:51:49;92333.28;;;20.06
69420;BMP280;56612;52.030;113.524;2022-07-10T13:00:54;92337.78;;;19.76
69420;BMP280;56612;52.030;113.524;2022-07-10T13:05:33;92345.53;;;19.68
69420;BMP280;56612;52.030;113.524;2022-07-10T13:14:38;92352.09;;;19.54
